sensor_id;sensor_type;location;lat;lon;timestamp;P1;durP1;ratioP1;P2;durP2;ratioP2
23060;SDS011;11698;47.690;9.132;2023-02-24T00:02:13;6.97;;;2.60;;
23060;SDS011;11698;47.690;9.132;2023-02-24T00:04:43;6.75;;;2.20;;
23060;SDS011;11698;47.690;9.132;2023-02-24T00:07:10;5.72;;;2.50;;
23060;SDS011;11698;47.690;9.132;2023-02-24T00:09:37;7.60;;;2.92;;
23060;SDS011;11698;47.690;9.132;2023-02-24T00:12:10;6.90;;;2.63;;
23060;SDS011;11698;47.690;9.132;2023-02-24T00:14:37;5.70;;;2.50;;
23060;SDS011;11698;47.690;9.132;2023-02-24T00:17:04;7.00;;;2.72;;
23060;SDS011;11698;47.690;9.132;2023-02-24T00:19:32;5.47;;;2.33;;
23060;SDS011;11698;47.690;9.132;2023-02-24T00:21:58;7.88;;;2.40;;
23060;SDS011;11698;47.690;9.132;2023-02-24T00:24:25;6.50;;;2.10;;
23060;SDS011;11698;47.690;9.132;2023-02-24T00:26:51;4.65;;;2.13;;
23060;SDS011;11698;47.690;9.132;2023-02-24T00:29:21;4.68;;;2.58;;
23060;SDS011;11698;47.690;9.132;2023-02-24T00:34:51;5.15;;;3.20;;
23060;SDS011;11698;47.690;9.132;2023-02-24T00:37:17;4.82;;;2.45;;
23060;SDS011;11698;47.690;9.132;2023-02-24T00:39:48;3.60;;;2.50;;
23060;SDS011;11698;47.690;9.132;2023-02-24T00:42:14;6.45;;;2.72;;
23060;SDS011;11698;47.690;9.132;2023-02-24T00:44:44;7.65;;;3.00;;
23060;SDS011;11698;47.690;9.132;2023-02-24T00:47:11;5.77;;;2.50;;
23060;SDS011;11698;47.690;9.132;2023-02-24T00:49:37;6.50;;;2.63;;
23060;SDS011;11698;47.690;9.132;2023-02-24T00:52:08;7.13;;;2.85;;
23060;SDS011;11698;47.690;9.132;2023-02-24T00:54:37;7.65;;;3.10;;
23060;SDS011;11698;47.690;9.132;2023-02-24T00:57:03;7.27;;;2.50;;
23060;SDS011;11698;47.690;9.132;2023-02-24T00:59:32;5.90;;;2.90;;
23060;SDS011;11698;47.690;9.132;2023-02-24T01:01:58;7.47;;;3.38;;
23060;SDS011;11698;47.690;9.132;2023-02-24T01:04:24;6.68;;;3.13;;
23060;SDS011;11698;47.690;9.132;2023-02-24T01:06:53;8.07;;;3.55;;
23060;SDS011;11698;47.690;9.132;2023-02-24T01:09:27;7.20;;;3.25;;
23060;SDS011;11698;47.690;9.132;2023-02-24T01:11:53;6.68;;;3.72;;
23060;SDS011;11698;47.690;9.132;2023-02-24T01:14:27;10.07;;;3.47;;
23060;SDS011;11698;47.690;9.132;2023-02-24T01:16:54;8.07;;;3.72;;
23060;SDS011;11698;47.690;9.132;2023-02-24T01:19:21;6.47;;;3.42;;
23060;SDS011;11698;47.690;9.132;2023-02-24T01:21:48;10.95;;;3.70;;
23060;SDS011;11698;47.690;9.132;2023-02-24T01:24:19;10.18;;;4.13;;
23060;SDS011;11698;47.690;9.132;2023-02-24T01:26:45;7.72;;;3.80;;
23060;SDS011;11698;47.690;9.132;2023-02-24T01:29:11;6.25;;;3.85;;
23060;SDS011;11698;47.690;9.132;2023-02-24T01:31:38;9.27;;;3.63;;
23060;SDS011;11698;47.690;9.132;2023-02-24T01:34:06;8.75;;;3.97;;
23060;SDS011;11698;47.690;9.132;2023-02-24T01:36:35;6.78;;;3.45;;
23060;SDS011;11698;47.690;9.132;2023-02-24T01:39:02;7.68;;;3.47;;
23060;SDS011;11698;47.690;9.132;2023-02-24T01:41:29;7.72;;;3.67;;
23060;SDS011;11698;47.690;9.132;2023-02-24T01:44:03;8.65;;;3.63;;
23060;SDS011;11698;47.690;9.132;2023-02-24T01:46:34;7.88;;;3.63;;
23060;SDS011;11698;47.690;9.132;2023-02-24T01:49:04;6.93;;;3.63;;
23060;SDS011;11698;47.690;9.132;2023-02-24T01:51:57;8.45;;;3.78;;
23060;SDS011;11698;47.690;9.132;2023-02-24T01:54:23;6.28;;;3.90;;
23060;SDS011;11698;47.690;9.132;2023-02-24T01:56:50;7.18;;;3.55;;
23060;SDS011;11698;47.690;9.132;2023-02-24T01:59:17;6.15;;;3.53;;
23060;SDS011;11698;47.690;9.132;2023-02-24T02:01:44;7.70;;;3.47;;
23060;SDS011;11698;47.690;9.132;2023-02-24T02:04:16;5.38;;;2.90;;
23060;SDS011;11698;47.690;9.132;2023-02-24T02:06:45;6.72;;;2.97;;
23060;SDS011;11698;47.690;9.132;2023-02-24T02:09:12;8.93;;;3.50;;
23060;SDS011;11698;47.690;9.132;2023-02-24T02:11:39;8.40;;;3.30;;
23060;SDS011;11698;47.690;9.132;2023-02-24T02:14:05;6.27;;;3.07;;
23060;SDS011;11698;47.690;9.132;2023-02-24T02:16:53;5.82;;;3.22;;
23060;SDS011;11698;47.690;9.132;2023-02-24T02:22:00;9.00;;;3.75;;
23060;SDS011;11698;47.690;9.132;2023-02-24T02:42:46;13.82;;;5.40;;
23060;SDS011;11698;47.690;9.132;2023-02-24T02:50:29;16.88;;;5.55;;
23060;SDS011;11698;47.690;9.132;2023-02-24T02:53:01;13.48;;;5.82;;
23060;SDS011;11698;47.690;9.132;2023-02-24T02:55:42;16.33;;;6.28;;
23060;SDS011;11698;47.690;9.132;2023-02-24T02:58:12;16.92;;;6.43;;
23060;SDS011;11698;47.690;9.132;2023-02-24T03:00:43;13.05;;;5.80;;
23060;SDS011;11698;47.690;9.132;2023-02-24T03:03:22;15.00;;;6.35;;
23060;SDS011;11698;47.690;9.132;2023-02-24T03:08:37;12.88;;;5.97;;
23060;SDS011;11698;47.690;9.132;2023-02-24T03:11:06;11.98;;;5.13;;
23060;SDS011;11698;47.690;9.132;2023-02-24T03:13:35;14.07;;;5.50;;
23060;SDS011;11698;47.690;9.132;2023-02-24T03:16:02;9.20;;;5.10;;
23060;SDS011;11698;47.690;9.132;2023-02-24T03:18:31;13.27;;;5.60;;
23060;SDS011;11698;47.690;9.132;2023-02-24T03:21:05;13.38;;;4.70;;
23060;SDS011;11698;47.690;9.132;2023-02-24T03:23:32;10.17;;;5.00;;
23060;SDS011;11698;47.690;9.132;2023-02-24T03:26:08;13.73;;;5.53;;
23060;SDS011;11698;47.690;9.132;2023-02-24T03:28:43;13.13;;;5.43;;
23060;SDS011;11698;47.690;9.132;2023-02-24T03:31:18;10.73;;;5.30;;
23060;SDS011;11698;47.690;9.132;2023-02-24T03:34:04;11.57;;;5.10;;
23060;SDS011;11698;47.690;9.132;2023-02-24T03:36:32;12.63;;;5.20;;
23060;SDS011;11698;47.690;9.132;2023-02-24T03:38:58;10.27;;;4.75;;
23060;SDS011;11698;47.690;9.132;2023-02-24T03:41:27;12.40;;;5.18;;
23060;SDS011;11698;47.690;9.132;2023-02-24T03:43:55;12.63;;;5.32;;
23060;SDS011;11698;47.690;9.132;2023-02-24T03:46:22;12.77;;;5.20;;
23060;SDS011;11698;47.690;9.132;2023-02-24T03:48:53;25.05;;;7.40;;
23060;SDS011;11698;47.690;9.132;2023-02-24T03:51:21;20.50;;;6.35;;
23060;SDS011;11698;47.690;9.132;2023-02-24T04:02:05;12.85;;;5.95;;
23060;SDS011;11698;47.690;9.132;2023-02-24T04:04:18;16.80;;;6.00;;
23060;SDS011;11698;47.690;9.132;2023-02-24T04:12:03;18.63;;;6.57;;
23060;SDS011;11698;47.690;9.132;2023-02-24T04:14:36;13.57;;;6.32;;
23060;SDS011;11698;47.690;9.132;2023-02-24T04:19:38;16.83;;;6.70;;
23060;SDS011;11698;47.690;9.132;2023-02-24T04:22:05;16.90;;;5.95;;
23060;SDS011;11698;47.690;9.132;2023-02-24T04:24:34;14.00;;;6.10;;
23060;SDS011;11698;47.690;9.132;2023-02-24T04:27:01;15.13;;;6.20;;
23060;SDS011;11698;47.690;9.132;2023-02-24T04:29:29;17.92;;;6.63;;
23060;SDS011;11698;47.690;9.132;2023-02-24T04:32:00;16.42;;;5.97;;
23060;SDS011;11698;47.690;9.132;2023-02-24T04:34:27;18.08;;;6.75;;
23060;SDS011;11698;47.690;9.132;2023-02-24T04:36:56;16.20;;;6.05;;
23060;SDS011;11698;47.690;9.132;2023-02-24T04:39:23;14.90;;;6.13;;
23060;SDS011;11698;47.690;9.132;2023-02-24T04:41:49;14.95;;;6.40;;
23060;SDS011;11698;47.690;9.132;2023-02-24T04:44:16;15.13;;;6.38;;
23060;SDS011;11698;47.690;9.132;2023-02-24T04:46:42;13.23;;;5.88;;
23060;SDS011;11698;47.690;9.132;2023-02-24T04:49:09;14.65;;;5.93;;
23060;SDS011;11698;47.690;9.132;2023-02-24T04:51:35;14.00;;;6.43;;
23060;SDS011;11698;47.690;9.132;2023-02-24T04:54:01;20.08;;;6.80;;
23060;SDS011;11698;47.690;9.132;2023-02-24T04:56:27;17.20;;;6.65;;
23060;SDS011;11698;47.690;9.132;2023-02-24T04:58:54;13.73;;;6.22;;
23060;SDS011;11698;47.690;9.132;2023-02-24T05:01:20;14.25;;;6.32;;
23060;SDS011;11698;47.690;9.132;2023-02-24T05:03:46;12.05;;;5.65;;
23060;SDS011;11698;47.690;9.132;2023-02-24T05:06:13;17.83;;;6.25;;
23060;SDS011;11698;47.690;9.132;2023-02-24T05:08:40;16.48;;;6.50;;
23060;SDS011;11698;47.690;9.132;2023-02-24T05:11:06;15.32;;;6.72;;
23060;SDS011;11698;47.690;9.132;2023-02-24T05:13:32;16.35;;;6.53;;
23060;SDS011;11698;47.690;9.132;2023-02-24T05:16:05;16.63;;;6.68;;
23060;SDS011;11698;47.690;9.132;2023-02-24T05:18:32;13.27;;;5.70;;
23060;SDS011;11698;47.690;9.132;2023-02-24T05:21:08;22.75;;;6.78;;
23060;SDS011;11698;47.690;9.132;2023-02-24T05:23:53;16.37;;;7.47;;
23060;SDS011;11698;47.690;9.132;2023-02-24T05:26:21;20.77;;;6.88;;
23060;SDS011;11698;47.690;9.132;2023-02-24T05:28:49;19.98;;;7.43;;
23060;SDS011;11698;47.690;9.132;2023-02-24T05:31:23;17.23;;;6.70;;
23060;SDS011;11698;47.690;9.132;2023-02-24T05:33:50;20.55;;;8.32;;
23060;SDS011;11698;47.690;9.132;2023-02-24T05:36:22;19.92;;;7.50;;
23060;SDS011;11698;47.690;9.132;2023-02-24T05:38:49;20.70;;;7.32;;
23060;SDS011;11698;47.690;9.132;2023-02-24T05:41:21;18.58;;;7.13;;
23060;SDS011;11698;47.690;9.132;2023-02-24T05:43:49;22.83;;;7.60;;
23060;SDS011;11698;47.690;9.132;2023-02-24T05:46:23;18.17;;;7.85;;
23060;SDS011;11698;47.690;9.132;2023-02-24T05:48:52;19.45;;;7.55;;
23060;SDS011;11698;47.690;9.132;2023-02-24T05:51:21;15.10;;;6.93;;
23060;SDS011;11698;47.690;9.132;2023-02-24T05:53:48;15.88;;;8.15;;
23060;SDS011;11698;47.690;9.132;2023-02-24T05:56:15;17.70;;;7.27;;
23060;SDS011;11698;47.690;9.132;2023-02-24T05:58:43;21.40;;;7.38;;
23060;SDS011;11698;47.690;9.132;2023-02-24T06:01:11;10.82;;;6.28;;
23060;SDS011;11698;47.690;9.132;2023-02-24T06:03:41;24.45;;;6.72;;
23060;SDS011;11698;47.690;9.132;2023-02-24T06:06:11;27.50;;;7.10;;
23060;SDS011;11698;47.690;9.132;2023-02-24T06:08:37;20.00;;;6.60;;
23060;SDS011;11698;47.690;9.132;2023-02-24T06:11:16;18.30;;;6.07;;
23060;SDS011;11698;47.690;9.132;2023-02-24T06:13:43;13.77;;;5.65;;
23060;SDS011;11698;47.690;9.132;2023-02-24T06:16:11;17.40;;;5.93;;
23060;SDS011;11698;47.690;9.132;2023-02-24T06:18:39;11.45;;;5.28;;
23060;SDS011;11698;47.690;9.132;2023-02-24T06:21:05;13.57;;;5.65;;
23060;SDS011;11698;47.690;9.132;2023-02-24T06:23:36;17.85;;;6.13;;
23060;SDS011;11698;47.690;9.132;2023-02-24T06:26:03;11.90;;;6.07;;
23060;SDS011;11698;47.690;9.132;2023-02-24T06:28:30;13.38;;;5.60;;
23060;SDS011;11698;47.690;9.132;2023-02-24T06:30:57;22.20;;;6.80;;
23060;SDS011;11698;47.690;9.132;2023-02-24T06:33:23;15.02;;;5.93;;
23060;SDS011;11698;47.690;9.132;2023-02-24T06:35:51;15.57;;;5.60;;
23060;SDS011;11698;47.690;9.132;2023-02-24T06:38:17;10.73;;;5.13;;
23060;SDS011;11698;47.690;9.132;2023-02-24T06:40:43;12.27;;;4.90;;
23060;SDS011;11698;47.690;9.132;2023-02-24T06:43:11;12.73;;;4.53;;
23060;SDS011;11698;47.690;9.132;2023-02-24T06:45:37;16.05;;;4.45;;
23060;SDS011;11698;47.690;9.132;2023-02-24T06:48:03;9.27;;;4.20;;
23060;SDS011;11698;47.690;9.132;2023-02-24T06:50:31;9.32;;;4.50;;
23060;SDS011;11698;47.690;9.132;2023-02-24T06:52:57;13.90;;;4.82;;
23060;SDS011;11698;47.690;9.132;2023-02-24T06:55:24;13.07;;;5.45;;
23060;SDS011;11698;47.690;9.132;2023-02-24T06:57:51;14.65;;;5.53;;
23060;SDS011;11698;47.690;9.132;2023-02-24T07:00:21;11.50;;;5.70;;
23060;SDS011;11698;47.690;9.132;2023-02-24T07:02:51;9.40;;;5.23;;
23060;SDS011;11698;47.690;9.132;2023-02-24T07:05:17;9.07;;;5.40;;
23060;SDS011;11698;47.690;9.132;2023-02-24T07:07:47;9.77;;;5.15;;
23060;SDS011;11698;47.690;9.132;2023-02-24T07:10:13;7.88;;;4.40;;
23060;SDS011;11698;47.690;9.132;2023-02-24T07:12:40;12.27;;;4.47;;
23060;SDS011;11698;47.690;9.132;2023-02-24T07:15:06;10.65;;;4.13;;
23060;SDS011;11698;47.690;9.132;2023-02-24T07:17:33;5.72;;;3.95;;
23060;SDS011;11698;47.690;9.132;2023-02-24T07:20:00;5.50;;;3.90;;
23060;SDS011;11698;47.690;9.132;2023-02-24T07:22:35;5.57;;;4.28;;
23060;SDS011;11698;47.690;9.132;2023-02-24T07:25:01;4.85;;;3.97;;
23060;SDS011;11698;47.690;9.132;2023-02-24T07:27:28;4.90;;;3.65;;
23060;SDS011;11698;47.690;9.132;2023-02-24T07:29:55;5.40;;;3.60;;
23060;SDS011;11698;47.690;9.132;2023-02-24T07:32:21;5.88;;;3.97;;
23060;SDS011;11698;47.690;9.132;2023-02-24T07:34:47;6.65;;;3.92;;
23060;SDS011;11698;47.690;9.132;2023-02-24T07:37:13;6.70;;;4.78;;
23060;SDS011;11698;47.690;9.132;2023-02-24T07:39:39;6.03;;;4.57;;
23060;SDS011;11698;47.690;9.132;2023-02-24T07:42:08;12.88;;;7.90;;
23060;SDS011;11698;47.690;9.132;2023-02-24T07:44:34;10.18;;;7.13;;
23060;SDS011;11698;47.690;9.132;2023-02-24T07:47:00;8.10;;;6.78;;
23060;SDS011;11698;47.690;9.132;2023-02-24T07:49:31;9.20;;;5.28;;
23060;SDS011;11698;47.690;9.132;2023-02-24T07:51:58;8.70;;;6.65;;
23060;SDS011;11698;47.690;9.132;2023-02-24T07:54:25;5.30;;;4.30;;
23060;SDS011;11698;47.690;9.132;2023-02-24T07:56:54;7.90;;;4.77;;
23060;SDS011;11698;47.690;9.132;2023-02-24T07:59:21;5.85;;;3.92;;
23060;SDS011;11698;47.690;9.132;2023-02-24T08:01:47;4.75;;;3.70;;
23060;SDS011;11698;47.690;9.132;2023-02-24T08:04:19;7.30;;;4.15;;
23060;SDS011;11698;47.690;9.132;2023-02-24T08:06:47;5.78;;;3.90;;
23060;SDS011;11698;47.690;9.132;2023-02-24T08:09:20;5.30;;;4.28;;
23060;SDS011;11698;47.690;9.132;2023-02-24T08:12:07;5.83;;;4.33;;
23060;SDS011;11698;47.690;9.132;2023-02-24T08:14:33;23.60;;;17.90;;
23060;SDS011;11698;47.690;9.132;2023-02-24T08:16:59;26.05;;;19.55;;
23060;SDS011;11698;47.690;9.132;2023-02-24T08:19:26;7.43;;;6.13;;
23060;SDS011;11698;47.690;9.132;2023-02-24T08:22:13;5.82;;;4.32;;
23060;SDS011;11698;47.690;9.132;2023-02-24T08:24:57;5.97;;;4.50;;
23060;SDS011;11698;47.690;9.132;2023-02-24T08:27:30;6.37;;;4.40;;
23060;SDS011;11698;47.690;9.132;2023-02-24T08:29:57;9.50;;;5.05;;
23060;SDS011;11698;47.690;9.132;2023-02-24T08:32:33;8.63;;;5.93;;
23060;SDS011;11698;47.690;9.132;2023-02-24T08:35:05;14.88;;;9.13;;
23060;SDS011;11698;47.690;9.132;2023-02-24T08:37:38;11.57;;;5.53;;
23060;SDS011;11698;47.690;9.132;2023-02-24T08:40:13;10.38;;;5.72;;
23060;SDS011;11698;47.690;9.132;2023-02-24T08:43:02;10.07;;;5.28;;
23060;SDS011;11698;47.690;9.132;2023-02-24T08:45:54;9.90;;;5.40;;
23060;SDS011;11698;47.690;9.132;2023-02-24T08:48:22;11.13;;;6.20;;
23060;SDS011;11698;47.690;9.132;2023-02-24T08:50:57;10.70;;;7.47;;
23060;SDS011;11698;47.690;9.132;2023-02-24T08:53:23;11.15;;;5.88;;
23060;SDS011;11698;47.690;9.132;2023-02-24T08:55:55;11.43;;;6.35;;
23060;SDS011;11698;47.690;9.132;2023-02-24T08:58:21;13.10;;;8.88;;
23060;SDS011;11698;47.690;9.132;2023-02-24T09:00:55;12.30;;;7.18;;
23060;SDS011;11698;47.690;9.132;2023-02-24T09:03:24;12.80;;;7.57;;
23060;SDS011;11698;47.690;9.132;2023-02-24T09:06:03;11.80;;;7.23;;
23060;SDS011;11698;47.690;9.132;2023-02-24T09:08:33;18.17;;;10.63;;
23060;SDS011;11698;47.690;9.132;2023-02-24T09:11:02;13.95;;;8.30;;
23060;SDS011;11698;47.690;9.132;2023-02-24T09:13:32;15.40;;;8.10;;
23060;SDS011;11698;47.690;9.132;2023-02-24T09:15:59;12.30;;;6.90;;
23060;SDS011;11698;47.690;9.132;2023-02-24T09:18:26;9.18;;;6.63;;
23060;SDS011;11698;47.690;9.132;2023-02-24T09:20:54;11.40;;;6.75;;
23060;SDS011;11698;47.690;9.132;2023-02-24T09:23:21;12.52;;;7.60;;
23060;SDS011;11698;47.690;9.132;2023-02-24T09:25:54;9.45;;;6.53;;
23060;SDS011;11698;47.690;9.132;2023-02-24T09:28:23;9.65;;;5.75;;
23060;SDS011;11698;47.690;9.132;2023-02-24T09:30:50;9.85;;;6.97;;
23060;SDS011;11698;47.690;9.132;2023-02-24T09:33:24;13.68;;;5.88;;
23060;SDS011;11698;47.690;9.132;2023-02-24T09:35:51;10.43;;;6.10;;
23060;SDS011;11698;47.690;9.132;2023-02-24T09:38:19;8.70;;;5.90;;
23060;SDS011;11698;47.690;9.132;2023-02-24T09:41:00;11.00;;;6.20;;
23060;SDS011;11698;47.690;9.132;2023-02-24T09:43:30;10.73;;;6.10;;
23060;SDS011;11698;47.690;9.132;2023-02-24T09:46:09;10.10;;;6.27;;
23060;SDS011;11698;47.690;9.132;2023-02-24T09:48:44;10.13;;;6.25;;
23060;SDS011;11698;47.690;9.132;2023-02-24T09:51:14;10.48;;;6.10;;
23060;SDS011;11698;47.690;9.132;2023-02-24T09:53:51;11.85;;;6.43;;
23060;SDS011;11698;47.690;9.132;2023-02-24T10:06:26;8.57;;;6.13;;
23060;SDS011;11698;47.690;9.132;2023-02-24T10:11:35;9.55;;;6.32;;
23060;SDS011;11698;47.690;9.132;2023-02-24T10:14:02;10.95;;;6.43;;
23060;SDS011;11698;47.690;9.132;2023-02-24T10:16:31;13.13;;;6.38;;
23060;SDS011;11698;47.690;9.132;2023-02-24T10:19:25;11.07;;;6.20;;
23060;SDS011;11698;47.690;9.132;2023-02-24T10:21:56;11.10;;;5.73;;
23060;SDS011;11698;47.690;9.132;2023-02-24T10:24:46;9.30;;;6.40;;
23060;SDS011;11698;47.690;9.132;2023-02-24T10:27:23;11.50;;;6.45;;
23060;SDS011;11698;47.690;9.132;2023-02-24T10:30:02;10.43;;;5.97;;
23060;SDS011;11698;47.690;9.132;2023-02-24T10:32:47;9.60;;;6.18;;
23060;SDS011;11698;47.690;9.132;2023-02-24T10:35:15;10.00;;;6.83;;
23060;SDS011;11698;47.690;9.132;2023-02-24T10:37:41;9.53;;;6.17;;
23060;SDS011;11698;47.690;9.132;2023-02-24T10:40:07;10.47;;;6.17;;
23060;SDS011;11698;47.690;9.132;2023-02-24T10:42:33;11.02;;;5.97;;
23060;SDS011;11698;47.690;9.132;2023-02-24T10:47:42;11.75;;;7.07;;
23060;SDS011;11698;47.690;9.132;2023-02-24T10:50:19;10.97;;;6.50;;
23060;SDS011;11698;47.690;9.132;2023-02-24T10:52:46;10.27;;;6.97;;
23060;SDS011;11698;47.690;9.132;2023-02-24T10:58:10;15.98;;;9.20;;
23060;SDS011;11698;47.690;9.132;2023-02-24T11:00:44;15.07;;;8.80;;
23060;SDS011;11698;47.690;9.132;2023-02-24T11:03:25;14.27;;;7.25;;
23060;SDS011;11698;47.690;9.132;2023-02-24T11:06:00;12.70;;;7.70;;
23060;SDS011;11698;47.690;9.132;2023-02-24T11:08:27;12.00;;;6.78;;
23060;SDS011;11698;47.690;9.132;2023-02-24T11:11:15;11.85;;;7.00;;
23060;SDS011;11698;47.690;9.132;2023-02-24T11:13:49;12.18;;;7.75;;
23060;SDS011;11698;47.690;9.132;2023-02-24T11:16:44;12.82;;;7.68;;
23060;SDS011;11698;47.690;9.132;2023-02-24T11:19:30;12.63;;;7.32;;
23060;SDS011;11698;47.690;9.132;2023-02-24T11:21:57;15.82;;;7.90;;
23060;SDS011;11698;47.690;9.132;2023-02-24T11:24:24;11.67;;;7.17;;
23060;SDS011;11698;47.690;9.132;2023-02-24T11:26:50;13.25;;;8.00;;
23060;SDS011;11698;47.690;9.132;2023-02-24T11:34:22;13.13;;;7.23;;
23060;SDS011;11698;47.690;9.132;2023-02-24T11:39:36;11.18;;;6.95;;
23060;SDS011;11698;47.690;9.132;2023-02-24T11:42:07;12.90;;;7.78;;
23060;SDS011;11698;47.690;9.132;2023-02-24T11:44:48;12.60;;;7.37;;
23060;SDS011;11698;47.690;9.132;2023-02-24T11:47:17;12.88;;;7.32;;
23060;SDS011;11698;47.690;9.132;2023-02-24T11:49:49;13.60;;;7.95;;
23060;SDS011;11698;47.690;9.132;2023-02-24T11:52:25;11.55;;;7.30;;
23060;SDS011;11698;47.690;9.132;2023-02-24T11:54:55;13.10;;;7.15;;
23060;SDS011;11698;47.690;9.132;2023-02-24T11:57:22;12.35;;;7.13;;
23060;SDS011;11698;47.690;9.132;2023-02-24T12:00:04;13.50;;;7.30;;
23060;SDS011;11698;47.690;9.132;2023-02-24T12:05:16;13.85;;;8.13;;
23060;SDS011;11698;47.690;9.132;2023-02-24T12:07:44;11.20;;;7.25;;
23060;SDS011;11698;47.690;9.132;2023-02-24T12:10:18;12.95;;;7.60;;
23060;SDS011;11698;47.690;9.132;2023-02-24T12:15:23;11.73;;;7.38;;
23060;SDS011;11698;47.690;9.132;2023-02-24T12:17:59;11.20;;;7.63;;
23060;SDS011;11698;47.690;9.132;2023-02-24T12:20:47;13.48;;;8.13;;
23060;SDS011;11698;47.690;9.132;2023-02-24T12:26:02;13.30;;;7.00;;
23060;SDS011;11698;47.690;9.132;2023-02-24T12:34:22;10.85;;;7.45;;
23060;SDS011;11698;47.690;9.132;2023-02-24T12:47:09;15.07;;;8.25;;
23060;SDS011;11698;47.690;9.132;2023-02-24T13:00:15;12.98;;;8.10;;
23060;SDS011;11698;47.690;9.132;2023-02-24T13:05:18;13.77;;;7.22;;
23060;SDS011;11698;47.690;9.132;2023-02-24T13:10:36;13.80;;;7.35;;
23060;SDS011;11698;47.690;9.132;2023-02-24T13:13:11;17.67;;;7.93;;
23060;SDS011;11698;47.690;9.132;2023-02-24T13:15:50;12.95;;;7.30;;
23060;SDS011;11698;47.690;9.132;2023-02-24T13:18:23;12.43;;;7.35;;
23060;SDS011;11698;47.690;9.132;2023-02-24T13:20:59;14.98;;;7.63;;
23060;SDS011;11698;47.690;9.132;2023-02-24T13:23:25;12.55;;;7.95;;
23060;SDS011;11698;47.690;9.132;2023-02-24T13:25:52;13.38;;;8.15;;
23060;SDS011;11698;47.690;9.132;2023-02-24T13:28:32;15.93;;;8.10;;
23060;SDS011;11698;47.690;9.132;2023-02-24T13:31:03;12.38;;;7.97;;
23060;SDS011;11698;47.690;9.132;2023-02-24T13:33:32;14.25;;;7.88;;
23060;SDS011;11698;47.690;9.132;2023-02-24T13:36:06;15.65;;;8.02;;
23060;SDS011;11698;47.690;9.132;2023-02-24T13:44:46;15.43;;;7.68;;
23060;SDS011;11698;47.690;9.132;2023-02-24T13:55:19;15.07;;;7.00;;
23060;SDS011;11698;47.690;9.132;2023-02-24T14:03:10;12.57;;;6.87;;
23060;SDS011;11698;47.690;9.132;2023-02-24T14:05:38;13.70;;;7.13;;
23060;SDS011;11698;47.690;9.132;2023-02-24T14:08:05;14.88;;;6.80;;
23060;SDS011;11698;47.690;9.132;2023-02-24T14:10:32;13.88;;;6.82;;
23060;SDS011;11698;47.690;9.132;2023-02-24T14:15:26;11.88;;;6.80;;
23060;SDS011;11698;47.690;9.132;2023-02-24T14:17:59;9.77;;;5.97;;
23060;SDS011;11698;47.690;9.132;2023-02-24T14:20:26;11.73;;;6.07;;
23060;SDS011;11698;47.690;9.132;2023-02-24T14:22:53;11.93;;;6.93;;
23060;SDS011;11698;47.690;9.132;2023-02-24T14:25:20;14.00;;;7.10;;
23060;SDS011;11698;47.690;9.132;2023-02-24T14:27:48;14.70;;;6.30;;
23060;SDS011;11698;47.690;9.132;2023-02-24T14:32:47;12.00;;;6.50;;
23060;SDS011;11698;47.690;9.132;2023-02-24T14:35:17;13.40;;;6.40;;
23060;SDS011;11698;47.690;9.132;2023-02-24T14:37:44;9.75;;;5.78;;
23060;SDS011;11698;47.690;9.132;2023-02-24T14:40:13;11.10;;;6.50;;
23060;SDS011;11698;47.690;9.132;2023-02-24T14:42:45;12.98;;;8.25;;
23060;SDS011;11698;47.690;9.132;2023-02-24T14:45:15;19.33;;;8.20;;
23060;SDS011;11698;47.690;9.132;2023-02-24T14:47:41;17.67;;;7.80;;
23060;SDS011;11698;47.690;9.132;2023-02-24T14:50:14;13.80;;;7.82;;
23060;SDS011;11698;47.690;9.132;2023-02-24T14:52:44;12.57;;;8.17;;
23060;SDS011;11698;47.690;9.132;2023-02-24T14:55:23;11.63;;;7.45;;
23060;SDS011;11698;47.690;9.132;2023-02-24T15:00:18;13.93;;;7.78;;
23060;SDS011;11698;47.690;9.132;2023-02-24T15:05:33;15.95;;;7.85;;
23060;SDS011;11698;47.690;9.132;2023-02-24T15:07:59;15.20;;;8.43;;
23060;SDS011;11698;47.690;9.132;2023-02-24T15:10:28;17.50;;;8.80;;
23060;SDS011;11698;47.690;9.132;2023-02-24T15:13:11;16.77;;;8.18;;
23060;SDS011;11698;47.690;9.132;2023-02-24T15:15:40;11.43;;;7.78;;
23060;SDS011;11698;47.690;9.132;2023-02-24T15:18:26;13.80;;;8.30;;
23060;SDS011;11698;47.690;9.132;2023-02-24T15:20:59;13.25;;;8.00;;
23060;SDS011;11698;47.690;9.132;2023-02-24T15:23:33;14.88;;;8.10;;
23060;SDS011;11698;47.690;9.132;2023-02-24T15:25:59;12.23;;;8.47;;
23060;SDS011;11698;47.690;9.132;2023-02-24T15:28:33;15.25;;;8.65;;
23060;SDS011;11698;47.690;9.132;2023-02-24T15:33:26;16.58;;;9.15;;
23060;SDS011;11698;47.690;9.132;2023-02-24T15:35:57;18.85;;;9.07;;
23060;SDS011;11698;47.690;9.132;2023-02-24T15:38:27;15.03;;;9.33;;
23060;SDS011;11698;47.690;9.132;2023-02-24T15:40:54;16.92;;;8.90;;
23060;SDS011;11698;47.690;9.132;2023-02-24T15:48:49;17.60;;;9.35;;
23060;SDS011;11698;47.690;9.132;2023-02-24T15:51:19;15.35;;;8.68;;
23060;SDS011;11698;47.690;9.132;2023-02-24T15:53:45;14.65;;;8.57;;
23060;SDS011;11698;47.690;9.132;2023-02-24T15:56:11;15.45;;;8.32;;
23060;SDS011;11698;47.690;9.132;2023-02-24T15:58:37;12.13;;;7.63;;
23060;SDS011;11698;47.690;9.132;2023-02-24T16:01:07;14.30;;;7.75;;
23060;SDS011;11698;47.690;9.132;2023-02-24T16:03:33;15.18;;;8.60;;
23060;SDS011;11698;47.690;9.132;2023-02-24T16:05:59;14.05;;;8.10;;
23060;SDS011;11698;47.690;9.132;2023-02-24T16:08:25;13.70;;;8.18;;
23060;SDS011;11698;47.690;9.132;2023-02-24T16:10:52;13.37;;;8.30;;
23060;SDS011;11698;47.690;9.132;2023-02-24T16:13:19;15.48;;;8.60;;
23060;SDS011;11698;47.690;9.132;2023-02-24T16:15:46;15.55;;;8.93;;
23060;SDS011;11698;47.690;9.132;2023-02-24T16:18:13;17.05;;;8.35;;
23060;SDS011;11698;47.690;9.132;2023-02-24T16:20:43;15.90;;;8.80;;
23060;SDS011;11698;47.690;9.132;2023-02-24T16:23:13;17.17;;;8.30;;
23060;SDS011;11698;47.690;9.132;2023-02-24T16:25:40;15.67;;;8.80;;
23060;SDS011;11698;47.690;9.132;2023-02-24T16:28:11;14.18;;;8.95;;
23060;SDS011;11698;47.690;9.132;2023-02-24T16:30:38;17.00;;;9.43;;
23060;SDS011;11698;47.690;9.132;2023-02-24T16:33:04;15.68;;;9.60;;
23060;SDS011;11698;47.690;9.132;2023-02-24T16:35:30;17.90;;;9.93;;
23060;SDS011;11698;47.690;9.132;2023-02-24T16:37:56;20.23;;;10.27;;
23060;SDS011;11698;47.690;9.132;2023-02-24T16:40:26;19.95;;;10.98;;
23060;SDS011;11698;47.690;9.132;2023-02-24T16:42:54;18.75;;;10.45;;
23060;SDS011;11698;47.690;9.132;2023-02-24T16:45:20;16.95;;;10.82;;
23060;SDS011;11698;47.690;9.132;2023-02-24T16:47:47;17.52;;;10.50;;
23060;SDS011;11698;47.690;9.132;2023-02-24T16:50:18;24.35;;;10.82;;
23060;SDS011;11698;47.690;9.132;2023-02-24T16:52:45;24.30;;;11.27;;
23060;SDS011;11698;47.690;9.132;2023-02-24T16:55:11;19.90;;;10.95;;
23060;SDS011;11698;47.690;9.132;2023-02-24T16:57:38;19.17;;;10.13;;
23060;SDS011;11698;47.690;9.132;2023-02-24T17:00:04;17.98;;;11.00;;
23060;SDS011;11698;47.690;9.132;2023-02-24T17:02:30;18.85;;;10.48;;
23060;SDS011;11698;47.690;9.132;2023-02-24T17:04:56;18.85;;;10.13;;
23060;SDS011;11698;47.690;9.132;2023-02-24T17:07:22;22.20;;;10.00;;
23060;SDS011;11698;47.690;9.132;2023-02-24T17:09:48;20.67;;;8.20;;
23060;SDS011;11698;47.690;9.132;2023-02-24T17:12:15;18.17;;;8.77;;
23060;SDS011;11698;47.690;9.132;2023-02-24T17:14:42;17.83;;;8.93;;
23060;SDS011;11698;47.690;9.132;2023-02-24T17:17:08;18.70;;;9.45;;
23060;SDS011;11698;47.690;9.132;2023-02-24T17:19:35;18.48;;;9.02;;
23060;SDS011;11698;47.690;9.132;2023-02-24T17:22:01;17.10;;;8.15;;
23060;SDS011;11698;47.690;9.132;2023-02-24T17:24:27;14.65;;;7.28;;
23060;SDS011;11698;47.690;9.132;2023-02-24T17:26:54;13.52;;;4.30;;